Time;durP1;ratioP1;P1;durP2;ratioP2;P2;SDS_P1;SDS_P2;PMS_P1;PMS_P2;Temp;Humidity;BMP_temperature;BMP_pressure;BME280_temperature;BME280_humidity;BME280_pressure;Samples;Min_cycle;Max_cycle;Signal;HPM_P1;HPM_P2
2023/03/12 00:01:00;;;;;;;6.80;4.72;;;;;;;;;;5014974;28;20038;-89
2023/03/12 00:03:26;;;;;;;7.95;4.78;;;;;;;;;;5011352;28;20111;-89
2023/03/12 00:05:52;;;;;;;11.88;4.82;;;;;;;;;;4994744;28;20041;-89
2023/03/12 00:08:18;;;;;;;9.95;4.95;;;;;;;;;;4998364;28;20041;-89
2023/03/12 00:10:44;;;;;;;10.52;4.50;;;;;;;;;;5016960;28;20037;-89
2023/03/12 00:13:10;;;;;;;9.23;6.13;;;;;;;;;;5018165;28;20095;-89
2023/03/12 00:15:37;;;;;;;10.18;4.65;;;;;;;;;;5027372;28;20055;-89
2023/03/12 00:18:03;;;;;;;7.35;4.93;;;;;;;;;;5005227;28;20045;-89
2023/03/12 00:20:29;;;;;;;9.95;5.40;;;;;;;;;;5025601;28;20711;-89
2023/03/12 00:22:55;;;;;;;8.57;4.60;;;;;;;;;;4999986;28;20037;-89
2023/03/12 00:25:21;;;;;;;8.82;5.55;;;;;;;;;;5023635;28;20049;-89
2023/03/12 00:27:47;;;;;;;9.27;4.70;;;;;;;;;;5022975;28;20057;-89
2023/03/12 00:30:13;;;;;;;10.55;4.82;;;;;;;;;;5025395;28;20037;-89
2023/03/12 00:32:39;;;;;;;12.40;5.97;;;;;;;;;;5036586;28;20049;-89
2023/03/12 00:35:06;;;;;;;11.90;7.50;;;;;;;;;;5022421;28;20048;-90
2023/03/12 00:37:32;;;;;;;9.38;5.22;;;;;;;;;;5009935;28;20044;-89
2023/03/12 00:40:00;;;;;;;9.23;5.00;;;;;;;;;;5030598;28;20049;-89
2023/03/12 00:42:26;;;;;;;8.70;5.45;;;;;;;;;;5009559;28;20038;-89
2023/03/12 00:44:52;;;;;;;8.20;4.88;;;;;;;;;;5030602;28;20037;-89
2023/03/12 00:47:18;;;;;;;8.88;4.72;;;;;;;;;;5021183;28;20372;-89
2023/03/12 00:49:44;;;;;;;10.30;4.82;;;;;;;;;;5011276;28;20033;-89
2023/03/12 00:52:10;;;;;;;11.90;5.13;;;;;;;;;;5012780;28;20070;-89
2023/03/12 00:54:36;;;;;;;7.15;4.32;;;;;;;;;;5003571;28;20407;-89
2023/03/12 00:57:02;;;;;;;8.27;4.32;;;;;;;;;;5017244;28;20098;-88
2023/03/12 00:59:28;;;;;;;7.78;4.55;;;;;;;;;;4999405;28;20041;-88
2023/03/12 01:01:54;;;;;;;11.68;5.68;;;;;;;;;;5018839;28;20049;-89
2023/03/12 01:04:20;;;;;;;8.38;5.43;;;;;;;;;;5019560;28;20049;-89
2023/03/12 01:06:46;;;;;;;6.97;5.05;;;;;;;;;;5028710;28;20051;-88
2023/03/12 01:09:12;;;;;;;9.10;5.35;;;;;;;;;;5031173;28;20147;-88
2023/03/12 01:11:38;;;;;;;8.57;5.10;;;;;;;;;;5019230;28;20156;-89
2023/03/12 01:14:05;;;;;;;10.77;5.07;;;;;;;;;;5019136;28;20160;-88
2023/03/12 01:16:31;;;;;;;7.28;4.95;;;;;;;;;;5021511;28;20550;-89
2023/03/12 01:18:58;;;;;;;9.20;4.82;;;;;;;;;;5003894;28;20129;-89
2023/03/12 01:21:24;;;;;;;10.23;5.38;;;;;;;;;;5017229;28;20399;-89
2023/03/12 01:23:50;;;;;;;11.18;4.82;;;;;;;;;;5028001;28;20562;-89
2023/03/12 01:26:16;;;;;;;11.23;5.63;;;;;;;;;;5023707;28;20034;-88
2023/03/12 01:28:42;;;;;;;12.27;5.63;;;;;;;;;;5014681;28;20037;-88
2023/03/12 01:31:10;;;;;;;11.40;6.03;;;;;;;;;;5017416;28;20059;-88
2023/03/12 01:33:36;;;;;;;12.05;6.60;;;;;;;;;;5020521;28;20037;-89
2023/03/12 01:36:02;;;;;;;14.30;8.70;;;;;;;;;;5014790;28;20052;-89
2023/03/12 01:38:28;;;;;;;18.45;8.13;;;;;;;;;;5011966;28;20040;-89
2023/03/12 01:40:54;;;;;;;10.23;7.03;;;;;;;;;;5020340;28;20068;-89
2023/03/12 01:43:31;;;;;;;8.85;5.97;;;;;;;;;;5008688;28;20137;-89
2023/03/12 01:46:01;;;;;;;10.45;5.75;;;;;;;;;;5012110;28;20084;-89
2023/03/12 01:48:28;;;;;;;7.90;5.47;;;;;;;;;;5020414;28;20045;-89
2023/03/12 01:50:54;;;;;;;6.75;5.07;;;;;;;;;;5020967;28;20048;-89
2023/03/12 01:53:21;;;;;;;8.48;4.97;;;;;;;;;;5005907;28;20506;-89
2023/03/12 01:55:47;;;;;;;7.35;5.07;;;;;;;;;;5019024;28;20203;-89
2023/03/12 01:58:14;;;;;;;5.85;4.20;;;;;;;;;;5007182;28;20076;-89
2023/03/12 02:00:40;;;;;;;9.15;4.93;;;;;;;;;;5017777;28;20041;-89
2023/03/12 02:03:07;;;;;;;6.45;4.80;;;;;;;;;;5017431;28;20645;-89
2023/03/12 02:05:37;;;;;;;13.93;4.85;;;;;;;;;;5021274;28;20081;-88
2023/03/12 02:08:02;;;;;;;8.05;4.82;;;;;;;;;;5021949;28;20037;-89
2023/03/12 02:10:29;;;;;;;9.38;4.30;;;;;;;;;;5016201;28;20071;-89
2023/03/12 02:12:55;;;;;;;7.45;4.00;;;;;;;;;;5017387;28;20033;-89
2023/03/12 02:15:21;;;;;;;11.32;4.15;;;;;;;;;;5002705;28;20058;-89
2023/03/12 02:17:47;;;;;;;7.43;4.32;;;;;;;;;;5021246;28;20061;-89
2023/03/12 02:20:22;;;;;;;8.77;4.50;;;;;;;;;;5001812;28;20041;-88
2023/03/12 02:22:56;;;;;;;6.35;3.83;;;;;;;;;;5015822;28;20053;-89
2023/03/12 02:25:37;;;;;;;5.97;3.33;;;;;;;;;;4995380;28;20046;-89
2023/03/12 02:28:06;;;;;;;8.50;3.30;;;;;;;;;;5015917;28;20036;-88
2023/03/12 02:30:32;;;;;;;6.57;3.72;;;;;;;;;;5032040;28;20040;-89
2023/03/12 02:33:04;;;;;;;5.88;3.78;;;;;;;;;;4999482;28;20092;-89
2023/03/12 02:35:30;;;;;;;8.63;4.25;;;;;;;;;;5008311;28;20132;-89
2023/03/12 02:37:56;;;;;;;7.80;3.97;;;;;;;;;;5004122;28;20134;-88
2023/03/12 02:40:33;;;;;;;8.15;4.18;;;;;;;;;;5014922;28;20049;-88
2023/03/12 02:43:00;;;;;;;8.45;3.90;;;;;;;;;;5015071;28;20548;-89
2023/03/12 02:45:26;;;;;;;5.28;3.72;;;;;;;;;;5005768;28;20060;-89
2023/03/12 02:47:52;;;;;;;7.53;4.22;;;;;;;;;;5016917;28;20087;-88
2023/03/12 02:50:18;;;;;;;6.80;3.80;;;;;;;;;;5001579;28;20092;-89
2023/03/12 02:52:44;;;;;;;10.50;5.43;;;;;;;;;;5013344;28;20084;-88
2023/03/12 02:55:10;;;;;;;6.90;3.70;;;;;;;;;;4999418;28;20041;-88
2023/03/12 02:57:36;;;;;;;7.25;4.00;;;;;;;;;;4998136;28;20049;-89
2023/03/12 03:00:11;;;;;;;7.65;4.13;;;;;;;;;;4999812;28;20041;-89
2023/03/12 03:02:37;;;;;;;9.10;3.97;;;;;;;;;;5011710;28;20069;-89
2023/03/12 03:05:03;;;;;;;7.63;4.82;;;;;;;;;;5017717;28;20166;-90
2023/03/12 03:07:29;;;;;;;7.22;4.57;;;;;;;;;;5015187;28;20071;-89
2023/03/12 03:09:55;;;;;;;8.30;4.25;;;;;;;;;;5003318;28;20040;-89
2023/03/12 03:12:21;;;;;;;5.80;3.75;;;;;;;;;;5022488;28;20037;-88
2023/03/12 03:14:48;;;;;;;7.82;3.65;;;;;;;;;;4999268;28;20096;-89
2023/03/12 03:17:14;;;;;;;9.98;4.28;;;;;;;;;;5018747;28;20460;-89
2023/03/12 03:19:40;;;;;;;5.95;4.00;;;;;;;;;;5013829;28;20046;-89
2023/03/12 03:22:06;;;;;;;5.75;3.65;;;;;;;;;;5020315;28;20784;-89
2023/03/12 03:24:32;;;;;;;7.50;3.80;;;;;;;;;;4995263;28;20053;-88
2023/03/12 03:26:58;;;;;;;6.38;3.30;;;;;;;;;;5007246;28;20034;-89
2023/03/12 03:29:24;;;;;;;6.25;3.72;;;;;;;;;;4998668;28;20071;-88
2023/03/12 03:31:50;;;;;;;4.32;3.33;;;;;;;;;;5008696;28;20038;-88
2023/03/12 03:34:16;;;;;;;7.40;3.40;;;;;;;;;;5012381;28;20045;-89
2023/03/12 03:36:42;;;;;;;7.93;3.50;;;;;;;;;;5010028;28;20579;-88
2023/03/12 03:39:08;;;;;;;5.38;3.05;;;;;;;;;;5014347;28;20049;-88
2023/03/12 03:41:34;;;;;;;8.23;4.40;;;;;;;;;;5014402;28;20049;-89
2023/03/12 03:44:00;;;;;;;7.10;3.53;;;;;;;;;;5011793;28;20069;-88
2023/03/12 03:46:26;;;;;;;5.65;3.75;;;;;;;;;;4997527;28;20116;-89
2023/03/12 03:48:52;;;;;;;6.07;2.97;;;;;;;;;;4993306;28;20042;-89
2023/03/12 03:51:18;;;;;;;5.00;3.03;;;;;;;;;;5012302;28;20041;-89
2023/03/12 03:53:44;;;;;;;8.57;3.85;;;;;;;;;;5015406;28;20145;-89
2023/03/12 03:56:13;;;;;;;11.18;5.47;;;;;;;;;;5012351;28;20498;-88
2023/03/12 03:58:39;;;;;;;8.00;3.38;;;;;;;;;;4996167;28;20052;-89
2023/03/12 04:01:05;;;;;;;4.80;3.13;;;;;;;;;;5015485;28;20049;-88
2023/03/12 04:03:31;;;;;;;10.40;4.43;;;;;;;;;;5009837;28;20578;-88
2023/03/12 04:06:02;;;;;;;8.10;3.78;;;;;;;;;;5002854;28;20042;-88
2023/03/12 04:08:28;;;;;;;5.43;3.83;;;;;;;;;;5009910;28;20568;-88
2023/03/12 04:10:54;;;;;;;9.00;4.90;;;;;;;;;;4995253;28;20041;-88
2023/03/12 04:13:21;;;;;;;6.50;4.03;;;;;;;;;;5012719;28;20117;-89
2023/03/12 04:15:48;;;;;;;7.40;4.22;;;;;;;;;;5000250;28;20049;-89
2023/03/12 04:18:14;;;;;;;6.57;4.18;;;;;;;;;;5013612;28;20525;-88
2023/03/12 04:20:40;;;;;;;8.00;3.38;;;;;;;;;;4998977;28;20056;-89
2023/03/12 04:23:06;;;;;;;7.90;3.75;;;;;;;;;;5019815;28;20037;-88
2023/03/12 04:25:32;;;;;;;6.88;3.33;;;;;;;;;;5014441;28;20533;-89
2023/03/12 04:27:58;;;;;;;9.35;4.45;;;;;;;;;;4996142;28;20073;-89
2023/03/12 04:30:23;;;;;;;10.25;5.13;;;;;;;;;;4997116;28;20053;-88
2023/03/12 04:32:49;;;;;;;9.32;4.15;;;;;;;;;;5015457;28;20580;-88
2023/03/12 04:35:16;;;;;;;9.07;4.22;;;;;;;;;;5027531;28;20052;-89
2023/03/12 04:37:42;;;;;;;6.72;4.18;;;;;;;;;;5012503;28;20084;-88
2023/03/12 04:40:08;;;;;;;6.50;3.90;;;;;;;;;;5024820;28;20503;-88
2023/03/12 04:42:35;;;;;;;8.57;3.95;;;;;;;;;;5014615;28;20041;-88
2023/03/12 04:45:01;;;;;;;8.18;4.78;;;;;;;;;;5011370;28;20042;-88
2023/03/12 04:47:27;;;;;;;9.18;4.07;;;;;;;;;;4999828;28;20091;-89
2023/03/12 04:49:53;;;;;;;8.15;3.65;;;;;;;;;;5016942;28;20037;-89
2023/03/12 04:52:19;;;;;;;5.30;3.30;;;;;;;;;;5022380;28;20041;-88
2023/03/12 04:54:45;;;;;;;11.82;4.00;;;;;;;;;;4997961;28;20418;-88
2023/03/12 04:57:11;;;;;;;5.78;3.78;;;;;;;;;;5015395;28;20506;-88
2023/03/12 04:59:37;;;;;;;10.07;4.63;;;;;;;;;;5001839;28;20132;-88
2023/03/12 05:02:03;;;;;;;7.60;4.35;;;;;;;;;;4999917;28;20477;-88
2023/03/12 05:04:29;;;;;;;6.93;4.43;;;;;;;;;;5013064;28;20049;-88
2023/03/12 05:06:55;;;;;;;9.95;5.15;;;;;;;;;;5014488;28;20049;-88
2023/03/12 05:09:21;;;;;;;7.25;3.97;;;;;;;;;;5016013;28;20160;-88
2023/03/12 05:11:47;;;;;;;9.15;4.22;;;;;;;;;;5035205;28;20145;-89
2023/03/12 05:14:13;;;;;;;7.57;4.68;;;;;;;;;;5016104;28;20057;-88
2023/03/12 05:16:39;;;;;;;9.35;3.78;;;;;;;;;;5025683;28;20063;-89
2023/03/12 05:19:05;;;;;;;9.32;4.45;;;;;;;;;;5036603;28;20041;-89
2023/03/12 05:21:31;;;;;;;7.35;4.20;;;;;;;;;;4999399;28;20060;-88
2023/03/12 05:23:58;;;;;;;9.35;4.55;;;;;;;;;;5016809;28;20088;-88
2023/03/12 05:26:26;;;;;;;6.13;4.32;;;;;;;;;;5012474;28;20261;-88
2023/03/12 05:28:52;;;;;;;6.93;5.00;;;;;;;;;;5023610;28;20113;-89
2023/03/12 05:31:18;;;;;;;6.97;4.22;;;;;;;;;;5016052;28;20518;-89
2023/03/12 05:33:44;;;;;;;7.07;3.83;;;;;;;;;;5000249;28;20041;-88
2023/03/12 05:36:10;;;;;;;8.43;4.35;;;;;;;;;;4999491;28;20033;-88
2023/03/12 05:38:37;;;;;;;6.10;4.63;;;;;;;;;;5008178;28;20067;-88
2023/03/12 05:41:03;;;;;;;7.68;3.67;;;;;;;;;;5032137;28;20030;-89
2023/03/12 05:43:29;;;;;;;11.50;4.53;;;;;;;;;;5036526;28;20045;-89
2023/03/12 05:45:58;;;;;;;7.97;3.75;;;;;;;;;;5014946;28;20038;-89
2023/03/12 05:48:24;;;;;;;7.25;4.70;;;;;;;;;;4999211;28;20072;-88
2023/03/12 05:50:50;;;;;;;10.65;4.18;;;;;;;;;;5015259;28;20076;-88
2023/03/12 05:53:16;;;;;;;11.02;4.70;;;;;;;;;;5022898;28;20510;-88
2023/03/12 05:55:42;;;;;;;8.40;4.43;;;;;;;;;;5014922;28;20637;-88
2023/03/12 05:58:09;;;;;;;8.50;4.30;;;;;;;;;;5001154;28;20099;-89
2023/03/12 06:00:36;;;;;;;7.97;4.13;;;;;;;;;;5014526;28;20055;-88
2023/03/12 06:03:04;;;;;;;6.43;4.10;;;;;;;;;;4997955;28;20037;-88
2023/03/12 06:05:30;;;;;;;8.23;4.13;;;;;;;;;;4999138;28;20049;-89
2023/03/12 06:07:56;;;;;;;13.05;5.35;;;;;;;;;;5028967;28;20079;-88
2023/03/12 06:10:22;;;;;;;11.48;4.75;;;;;;;;;;4998944;28;20490;-88
2023/03/12 06:12:48;;;;;;;10.40;4.75;;;;;;;;;;5012586;28;20045;-88
2023/03/12 06:15:14;;;;;;;10.98;5.13;;;;;;;;;;4996567;28;20594;-89
2023/03/12 06:17:40;;;;;;;9.20;5.05;;;;;;;;;;5011725;28;20057;-89
2023/03/12 06:20:06;;;;;;;10.05;5.35;;;;;;;;;;5013703;28;20041;-89
2023/03/12 06:22:32;;;;;;;10.20;5.68;;;;;;;;;;4994069;28;20045;-89
2023/03/12 06:24:58;;;;;;;9.60;5.25;;;;;;;;;;5014032;28;20094;-88
2023/03/12 06:27:24;;;;;;;7.72;4.70;;;;;;;;;;5012340;28;20096;-89
2023/03/12 06:29:51;;;;;;;11.05;5.25;;;;;;;;;;5014606;28;20048;-89
2023/03/12 06:32:17;;;;;;;13.93;6.43;;;;;;;;;;4999166;28;20033;-89
2023/03/12 06:34:43;;;;;;;8.25;5.47;;;;;;;;;;4997178;28;20149;-88
2023/03/12 06:37:09;;;;;;;9.63;4.88;;;;;;;;;;4998343;28;20064;-88
2023/03/12 06:39:35;;;;;;;7.82;5.47;;;;;;;;;;5011770;28;20427;-88
2023/03/12 06:42:01;;;;;;;8.30;5.60;;;;;;;;;;5018665;28;20049;-88
2023/03/12 06:44:27;;;;;;;9.43;5.53;;;;;;;;;;4998295;28;20107;-88
2023/03/12 06:46:53;;;;;;;14.50;5.90;;;;;;;;;;5021727;28;20037;-89
2023/03/12 06:49:19;;;;;;;10.93;5.88;;;;;;;;;;5023057;28;20045;-88
2023/03/12 06:51:45;;;;;;;11.55;5.70;;;;;;;;;;5015467;28;20037;-88
2023/03/12 06:54:11;;;;;;;9.32;5.53;;;;;;;;;;5013404;28;20049;-88
2023/03/12 06:56:38;;;;;;;8.80;5.90;;;;;;;;;;5008183;28;20100;-88
2023/03/12 06:59:04;;;;;;;13.00;6.20;;;;;;;;;;5015363;28;20064;-88
2023/03/12 07:01:30;;;;;;;13.57;6.75;;;;;;;;;;5015064;28;20771;-89
2023/03/12 07:03:56;;;;;;;13.35;6.88;;;;;;;;;;5003323;28;20049;-88
2023/03/12 07:06:22;;;;;;;10.73;6.65;;;;;;;;;;5028422;28;20068;-89
2023/03/12 07:08:49;;;;;;;11.23;6.45;;;;;;;;;;4998865;28;20042;-88
2023/03/12 07:11:16;;;;;;;12.75;7.03;;;;;;;;;;5014679;28;20034;-88
2023/03/12 07:13:42;;;;;;;8.77;6.18;;;;;;;;;;5006475;28;20065;-89
2023/03/12 07:16:08;;;;;;;8.13;6.03;;;;;;;;;;5030569;28;20049;-88
2023/03/12 07:18:35;;;;;;;18.60;7.43;;;;;;;;;;5011266;28;20065;-88
2023/03/12 07:21:00;;;;;;;11.85;6.72;;;;;;;;;;5015008;28;20120;-88
2023/03/12 07:23:26;;;;;;;14.43;6.85;;;;;;;;;;5011188;28;20124;-88
2023/03/12 07:25:52;;;;;;;12.73;7.90;;;;;;;;;;5006454;28;20041;-88
2023/03/12 07:28:19;;;;;;;11.63;8.52;;;;;;;;;;5019354;28;20044;-88
2023/03/12 07:30:51;;;;;;;12.55;6.85;;;;;;;;;;4996724;28;20128;-88
2023/03/12 07:33:18;;;;;;;12.40;7.57;;;;;;;;;;5013217;28;20097;-88
2023/03/12 07:35:45;;;;;;;8.55;6.72;;;;;;;;;;5014231;28;20071;-88
2023/03/12 07:38:11;;;;;;;12.65;7.80;;;;;;;;;;5016853;28;20123;-88
2023/03/12 07:40:37;;;;;;;13.57;7.63;;;;;;;;;;5012519;28;20188;-88
2023/03/12 07:43:10;;;;;;;12.90;7.55;;;;;;;;;;4998266;28;20041;-89
2023/03/12 07:45:37;;;;;;;14.00;8.00;;;;;;;;;;4994918;28;20049;-88
2023/03/12 07:48:03;;;;;;;13.23;8.23;;;;;;;;;;5004940;28;20395;-88
2023/03/12 07:50:29;;;;;;;17.58;9.02;;;;;;;;;;5009829;28;20068;-87
2023/03/12 07:52:55;;;;;;;13.10;8.20;;;;;;;;;;5012177;28;20048;-87
2023/03/12 07:55:21;;;;;;;16.40;8.73;;;;;;;;;;5019057;28;20455;-87
2023/03/12 07:57:47;;;;;;;14.38;7.93;;;;;;;;;;5014509;28;20049;-89
2023/03/12 08:00:14;;;;;;;11.98;8.68;;;;;;;;;;5019807;28;20080;-88
2023/03/12 08:02:40;;;;;;;12.55;7.25;;;;;;;;;;5011230;28;20100;-88
2023/03/12 08:05:06;;;;;;;15.52;8.55;;;;;;;;;;5013162;28;20053;-89
2023/03/12 08:07:33;;;;;;;12.23;7.00;;;;;;;;;;5031514;28;20038;-89
2023/03/12 08:10:00;;;;;;;10.70;7.78;;;;;;;;;;4997412;28;20064;-89
2023/03/12 08:12:26;;;;;;;13.80;8.48;;;;;;;;;;5009807;28;20040;-89
2023/03/12 08:14:52;;;;;;;11.18;7.85;;;;;;;;;;5009855;28;20164;-89
2023/03/12 08:17:18;;;;;;;15.05;7.35;;;;;;;;;;5013327;28;20148;-89
2023/03/12 08:19:44;;;;;;;15.88;7.57;;;;;;;;;;4998456;28;20474;-89
2023/03/12 08:22:10;;;;;;;14.50;7.70;;;;;;;;;;5021988;28;20041;-89
2023/03/12 08:24:36;;;;;;;13.07;7.38;;;;;;;;;;5035356;28;20041;-89
2023/03/12 08:27:02;;;;;;;15.98;8.18;;;;;;;;;;5016770;28;20406;-89
2023/03/12 08:29:28;;;;;;;18.52;7.65;;;;;;;;;;5000713;28;20041;-89
2023/03/12 08:31:55;;;;;;;13.15;8.18;;;;;;;;;;5028545;28;20094;-88
2023/03/12 08:34:23;;;;;;;13.55;8.75;;;;;;;;;;5016758;28;20116;-89
2023/03/12 08:36:49;;;;;;;14.82;8.48;;;;;;;;;;5017289;28;20507;-89
2023/03/12 08:39:15;;;;;;;14.38;7.80;;;;;;;;;;5027120;28;20044;-89
2023/03/12 08:41:41;;;;;;;15.27;9.07;;;;;;;;;;5022178;28;20053;-89
2023/03/12 08:44:07;;;;;;;14.32;9.18;;;;;;;;;;5015024;28;20041;-89
2023/03/12 08:46:33;;;;;;;14.65;9.02;;;;;;;;;;5016034;28;20503;-89
2023/03/12 08:49:00;;;;;;;13.18;8.52;;;;;;;;;;5014145;28;20521;-89
2023/03/12 08:51:26;;;;;;;15.07;8.35;;;;;;;;;;5012067;28;20041;-89
2023/03/12 08:53:52;;;;;;;13.68;8.70;;;;;;;;;;4995596;28;20041;-89
2023/03/12 08:56:18;;;;;;;13.88;9.70;;;;;;;;;;5018117;28;20381;-89
2023/03/12 08:58:44;;;;;;;18.45;9.73;;;;;;;;;;5010174;28;20033;-88
2023/03/12 09:01:11;;;;;;;19.38;9.88;;;;;;;;;;5013662;28;20045;-89
2023/03/12 09:03:37;;;;;;;13.60;9.50;;;;;;;;;;5012333;28;20204;-88
2023/03/12 09:06:05;;;;;;;18.15;9.50;;;;;;;;;;5018303;28;20040;-88
2023/03/12 09:08:32;;;;;;;14.98;8.88;;;;;;;;;;5032357;28;20133;-88
2023/03/12 09:11:00;;;;;;;14.18;9.90;;;;;;;;;;5004867;28;20543;-88
2023/03/12 09:13:26;;;;;;;14.00;9.85;;;;;;;;;;5012560;28;20056;-88
2023/03/12 09:15:52;;;;;;;10.70;8.40;;;;;;;;;;4996141;28;20367;-89
2023/03/12 09:18:19;;;;;;;14.65;8.68;;;;;;;;;;4993857;28;20045;-88
2023/03/12 09:20:45;;;;;;;15.27;10.25;;;;;;;;;;5020888;28;20045;-88
2023/03/12 09:23:11;;;;;;;18.35;11.13;;;;;;;;;;4989275;28;20423;-89
2023/03/12 09:25:37;;;;;;;20.15;11.52;;;;;;;;;;4996000;28;20037;-89
2023/03/12 09:28:03;;;;;;;17.15;10.20;;;;;;;;;;4998561;28;20044;-88
2023/03/12 09:30:30;;;;;;;19.83;11.18;;;;;;;;;;5011212;28;20045;-90
2023/03/12 09:32:57;;;;;;;21.42;11.63;;;;;;;;;;5011162;28;20037;-88
2023/03/12 09:35:23;;;;;;;18.08;9.18;;;;;;;;;;5014066;28;20044;-88
2023/03/12 09:37:50;;;;;;;19.42;11.10;;;;;;;;;;4995171;28;20053;-89
2023/03/12 09:40:17;;;;;;;16.30;10.60;;;;;;;;;;4995147;28;20091;-88
2023/03/12 09:42:45;;;;;;;19.20;10.77;;;;;;;;;;5010744;28;20128;-88
2023/03/12 09:45:23;;;;;;;18.92;10.00;;;;;;;;;;4994922;28;20045;-88
2023/03/12 09:47:51;;;;;;;16.27;10.38;;;;;;;;;;5009989;28;20651;-89
2023/03/12 09:50:21;;;;;;;15.27;9.32;;;;;;;;;;5010997;28;20045;-89
2023/03/12 09:52:57;;;;;;;15.50;9.98;;;;;;;;;;5011287;28;20450;-88
2023/03/12 09:55:24;;;;;;;17.45;11.15;;;;;;;;;;5004848;28;20041;-89
2023/03/12 09:57:51;;;;;;;18.08;11.18;;;;;;;;;;5008162;28;20514;-87
2023/03/12 10:00:21;;;;;;;11.85;7.65;;;;;;;;;;5008764;28;20037;-89
2023/03/12 10:03:10;;;;;;;16.80;10.25;;;;;;;;;;4995127;28;20045;-88
2023/03/12 10:05:46;;;;;;;15.35;9.48;;;;;;;;;;5012353;28;20142;-88
2023/03/12 10:08:23;;;;;;;14.93;10.93;;;;;;;;;;5020052;28;20037;-88
2023/03/12 10:10:53;;;;;;;18.35;11.43;;;;;;;;;;4999032;28;20041;-87
2023/03/12 10:13:38;;;;;;;18.80;11.98;;;;;;;;;;4994811;28;20107;-87
2023/03/12 10:16:04;;;;;;;17.38;10.73;;;;;;;;;;5011436;28;20042;-88
2023/03/12 10:18:36;;;;;;;17.75;11.60;;;;;;;;;;5011074;28;20045;-88
2023/03/12 10:21:13;;;;;;;16.63;11.45;;;;;;;;;;5011223;28;20124;-87
2023/03/12 10:23:48;;;;;;;16.25;11.77;;;;;;;;;;5012642;28;20140;-89
2023/03/12 10:26:33;;;;;;;22.30;12.82;;;;;;;;;;5011801;28;20045;-89
2023/03/12 10:29:15;;;;;;;18.80;12.20;;;;;;;;;;5017739;28;20042;-88
2023/03/12 10:31:57;;;;;;;20.52;12.55;;;;;;;;;;4992776;28;20053;-87
2023/03/12 10:34:29;;;;;;;21.08;12.60;;;;;;;;;;5015119;28;20043;-87
2023/03/12 10:36:58;;;;;;;21.23;13.23;;;;;;;;;;5010002;28;20055;-87
2023/03/12 10:39:24;;;;;;;20.35;13.27;;;;;;;;;;4991652;28;20044;-87
2023/03/12 10:41:51;;;;;;;23.05;13.10;;;;;;;;;;5008742;28;20049;-89
2023/03/12 10:44:20;;;;;;;22.08;14.05;;;;;;;;;;4993380;28;20047;-88
2023/03/12 10:46:46;;;;;;;22.20;13.95;;;;;;;;;;5009425;28;20479;-88
2023/03/12 10:49:22;;;;;;;20.55;11.60;;;;;;;;;;5014540;28;20037;-87
2023/03/12 10:52:04;;;;;;;24.27;13.93;;;;;;;;;;5012275;28;20052;-88
2023/03/12 10:54:30;;;;;;;21.52;13.98;;;;;;;;;;4995590;28;20049;-88
2023/03/12 10:56:56;;;;;;;24.80;14.55;;;;;;;;;;5013952;28;20049;-88
2023/03/12 10:59:25;;;;;;;24.42;13.75;;;;;;;;;;5012715;28;20045;-87
2023/03/12 11:01:51;;;;;;;24.83;15.25;;;;;;;;;;5009101;28;20072;-87
2023/03/12 11:04:19;;;;;;;26.95;17.00;;;;;;;;;;5006174;28;20091;-86
2023/03/12 11:07:05;;;;;;;28.77;16.33;;;;;;;;;;5010228;28;20514;-86
2023/03/12 11:09:31;;;;;;;30.02;17.30;;;;;;;;;;5015853;28;20075;-87
2023/03/12 11:11:57;;;;;;;28.90;16.50;;;;;;;;;;5008713;28;20130;-87
2023/03/12 11:14:24;;;;;;;30.50;17.65;;;;;;;;;;5000378;28;20065;-88
2023/03/12 11:16:51;;;;;;;32.85;18.02;;;;;;;;;;5026072;28;20045;-87
2023/03/12 11:19:34;;;;;;;31.60;17.52;;;;;;;;;;5008824;28;20045;-87
2023/03/12 11:22:06;;;;;;;28.58;16.20;;;;;;;;;;5010370;28;20140;-87
2023/03/12 11:24:32;;;;;;;32.28;17.83;;;;;;;;;;4995827;28;20045;-87
2023/03/12 11:27:01;;;;;;;29.67;17.33;;;;;;;;;;5008995;28;20037;-87
2023/03/12 11:29:38;;;;;;;32.00;17.58;;;;;;;;;;5007715;28;20156;-87
2023/03/12 11:32:24;;;;;;;31.00;16.70;;;;;;;;;;5008192;28;20505;-88
2023/03/12 11:34:51;;;;;;;;;;;;;;;;;;4992725;28;20071;-87
2023/03/12 11:37:36;;;;;;;35.10;16.95;;;;;;;;;;5008838;28;19928;-87
2023/03/12 11:40:15;;;;;;;32.90;18.60;;;;;;;;;;5014506;28;20451;-87
2023/03/12 11:42:48;;;;;;;32.72;18.25;;;;;;;;;;5013810;28;20770;-88
2023/03/12 11:45:21;;;;;;;32.25;19.65;;;;;;;;;;4993056;28;20045;-88
2023/03/12 11:47:58;;;;;;;37.53;19.63;;;;;;;;;;5011264;28;20041;-87
2023/03/12 11:50:24;;;;;;;37.22;20.42;;;;;;;;;;5012121;28;20038;-88
2023/03/12 11:53:17;;;;;;;32.50;20.00;;;;;;;;;;5017888;28;20045;-88
2023/03/12 11:55:51;;;;;;;36.58;21.13;;;;;;;;;;4993407;28;20184;-89
2023/03/12 11:58:38;;;;;;;38.45;21.48;;;;;;;;;;5008487;28;20491;-88
2023/03/12 12:01:15;;;;;;;35.05;20.55;;;;;;;;;;4988601;28;20037;-88
2023/03/12 12:03:47;;;;;;;40.00;20.73;;;;;;;;;;5003694;28;20045;-88
2023/03/12 12:06:27;;;;;;;39.30;22.05;;;;;;;;;;4992263;28;20048;-89
2023/03/12 12:08:56;;;;;;;36.35;21.00;;;;;;;;;;5003311;28;21097;-87
2023/03/12 12:11:27;;;;;;;40.38;19.48;;;;;;;;;;5007740;28;20036;-88
2023/03/12 12:14:12;;;;;;;35.40;19.02;;;;;;;;;;5000223;28;20069;-88
2023/03/12 12:16:58;;;;;;;42.80;22.45;;;;;;;;;;5003723;28;20123;-90
2023/03/12 12:19:36;;;;;;;38.95;20.23;;;;;;;;;;5001269;28;20373;-89
2023/03/12 12:22:17;;;;;;;39.72;21.15;;;;;;;;;;5004174;28;20465;-88
2023/03/12 12:24:46;;;;;;;39.80;21.15;;;;;;;;;;5001568;28;20052;-88
2023/03/12 12:27:18;;;;;;;40.58;21.55;;;;;;;;;;5003170;28;20033;-88
2023/03/12 12:29:48;;;;;;;44.70;20.70;;;;;;;;;;5001439;28;20042;-88
2023/03/12 12:32:31;;;;;;;43.55;21.77;;;;;;;;;;4997551;28;20501;-89
2023/03/12 12:35:25;;;;;;;40.20;19.55;;;;;;;;;;5005111;28;20045;-89
2023/03/12 12:38:11;;;;;;;43.70;20.27;;;;;;;;;;4982574;28;20360;-88
2023/03/12 12:40:40;;;;;;;39.83;20.05;;;;;;;;;;4989401;28;20083;-88
2023/03/12 12:43:06;;;;;;;35.40;16.70;;;;;;;;;;5012467;28;20065;-88
2023/03/12 12:45:32;;;;;;;40.00;16.98;;;;;;;;;;5005325;28;20141;-90
2023/03/12 12:48:17;;;;;;;31.63;15.07;;;;;;;;;;4986804;28;20045;-89
2023/03/12 12:50:44;;;;;;;31.67;14.27;;;;;;;;;;5002771;28;20076;-89
2023/03/12 12:53:13;;;;;;;26.15;12.68;;;;;;;;;;5007302;28;20609;-89
2023/03/12 12:56:02;;;;;;;23.88;10.60;;;;;;;;;;5000987;28;20799;-89
2023/03/12 12:58:44;;;;;;;23.83;10.73;;;;;;;;;;4957982;28;20135;-90
2023/03/12 13:01:10;;;;;;;22.90;9.98;;;;;;;;;;5004847;28;20191;-89
2023/03/12 13:03:37;;;;;;;25.13;9.98;;;;;;;;;;4997180;28;20037;-88
2023/03/12 13:06:04;;;;;;;26.55;9.55;;;;;;;;;;5005675;28;20632;-89
2023/03/12 13:08:41;;;;;;;23.48;9.90;;;;;;;;;;5004794;28;20080;-90
2023/03/12 13:11:16;;;;;;;33.33;12.75;;;;;;;;;;5004971;28;20065;-89
2023/03/12 13:13:45;;;;;;;23.05;10.80;;;;;;;;;;4984196;28;20053;-90
2023/03/12 13:16:20;;;;;;;31.17;12.38;;;;;;;;;;5011030;28;20152;-92
2023/03/12 13:18:56;;;;;;;37.40;12.32;;;;;;;;;;5001269;28;20038;-88
2023/03/12 13:21:26;;;;;;;29.08;11.38;;;;;;;;;;5009771;28;20041;-89
2023/03/12 13:24:04;;;;;;;32.83;12.98;;;;;;;;;;5008521;28;20048;-89
2023/03/12 13:26:52;;;;;;;38.35;12.85;;;;;;;;;;5002358;28;20041;-89
2023/03/12 13:29:18;;;;;;;45.80;12.45;;;;;;;;;;5011246;28;20041;-89
2023/03/12 13:31:44;;;;;;;37.45;12.15;;;;;;;;;;5004685;28;20056;-88
2023/03/12 13:34:16;;;;;;;37.38;12.52;;;;;;;;;;5010705;28;20137;-90
2023/03/12 13:36:43;;;;;;;39.35;14.07;;;;;;;;;;4983724;28;20459;-88
2023/03/12 13:39:16;;;;;;;47.28;15.02;;;;;;;;;;5008137;28;20198;-89
2023/03/12 13:41:45;;;;;;;45.03;13.48;;;;;;;;;;5012421;28;20046;-90
2023/03/12 13:44:24;;;;;;;42.40;13.00;;;;;;;;;;5013718;28;20403;-89
2023/03/12 13:49:42;;;;;;;40.47;11.80;;;;;;;;;;5035394;28;20052;-72
2023/03/12 13:52:21;;;;;;;44.78;11.82;;;;;;;;;;5014122;28;20056;-72
2023/03/12 13:54:49;;;;;;;37.92;10.93;;;;;;;;;;5030186;28;20049;-72
2023/03/12 13:57:35;;;;;;;38.55;10.88;;;;;;;;;;5029049;28;20049;-72
2023/03/12 14:00:05;;;;;;;39.53;9.82;;;;;;;;;;5018430;28;20128;-72
2023/03/12 14:02:34;;;;;;;46.13;11.10;;;;;;;;;;5013143;28;20049;-71
2023/03/12 14:05:02;;;;;;;47.40;12.52;;;;;;;;;;5013197;28;20403;-73
2023/03/12 14:07:47;;;;;;;35.97;10.98;;;;;;;;;;5010336;28;20103;-70
2023/03/12 14:10:19;;;;;;;41.20;10.02;;;;;;;;;;5006779;28;20512;-70
2023/03/12 14:12:48;;;;;;;41.28;10.50;;;;;;;;;;5016825;28;20128;-73
2023/03/12 14:15:14;;;;;;;35.80;11.55;;;;;;;;;;5012984;28;20079;-71
2023/03/12 14:17:42;;;;;;;38.20;9.50;;;;;;;;;;5017629;28;20064;-71
2023/03/12 14:20:17;;;;;;;38.20;10.43;;;;;;;;;;5011399;28;20470;-69
2023/03/12 14:22:43;;;;;;;;;;;;;;;;;;5018686;28;20064;-71
2023/03/12 14:25:20;;;;;;;39.80;9.00;;;;;;;;;;5021046;28;19928;-72
2023/03/12 14:27:46;;;;;;;33.88;9.13;;;;;;;;;;5020755;28;20049;-70
2023/03/12 14:30:19;;;;;;;47.47;9.10;;;;;;;;;;5014379;28;20052;-72
2023/03/12 14:32:46;;;;;;;43.15;8.73;;;;;;;;;;5019302;28;20442;-72
2023/03/12 14:35:18;;;;;;;40.80;8.88;;;;;;;;;;5005075;28;20788;-73
2023/03/12 14:37:55;;;;;;;38.17;8.05;;;;;;;;;;5023496;28;20049;-71
2023/03/12 14:40:21;;;;;;;34.80;8.10;;;;;;;;;;4996974;28;20139;-70
2023/03/12 14:42:47;;;;;;;36.40;9.30;;;;;;;;;;5008469;28;20045;-71